sensor_id;sensor_type;location;lat;lon;timestamp;pressure;altitude;pressure_sealevel;temperature;humidity
21960;BME280;11144;43.030;25.108;2022-12-29T10:55:35;100066.16;;;11.42;100.00
21960;BME280;11144;43.030;25.108;2022-12-29T10:57:13;100069.53;;;11.47;100.00
21960;BME280;11144;43.030;25.108;2022-12-29T10:58:50;100067.72;;;11.49;100.00
21960;BME280;11144;43.030;25.108;2022-12-29T11:00:24;100067.47;;;11.58;100.00
21960;BME280;11144;43.030;25.108;2022-12-29T11:03:57;100060.19;;;11.66;100.00
21960;BME280;11144;43.030;25.108;2022-12-29T11:05:36;100045.22;;;11.65;100.00
21960;BME280;11144;43.030;25.108;2022-12-29T11:07:14;100056.38;;;11.76;100.00
21960;BME280;11144;43.030;25.108;2022-12-29T11:08:55;100055.28;;;11.83;100.00
21960;BME280;11144;43.030;25.108;2022-12-29T11:10:36;100045.41;;;11.88;100.00
21960;BME280;11144;43.030;25.108;2022-12-29T11:12:23;100038.19;;;11.93;100.00
21960;BME280;11144;43.030;25.108;2022-12-29T11:13:59;100043.41;;;11.96;100.00
21960;BME280;11144;43.030;25.108;2022-12-29T11:15:39;100043.31;;;11.99;100.00
21960;BME280;11144;43.030;25.108;2022-12-29T11:17:15;100044.94;;;12.03;100.00
21960;BME280;11144;43.030;25.108;2022-12-29T11:18:48;100035.09;;;12.08;100.00
21960;BME280;11144;43.030;25.108;2022-12-29T11:20:32;100036.69;;;12.14;100.00
21960;BME280;11144;43.030;25.108;2022-12-29T11:22:13;100032.31;;;12.11;100.00
21960;BME280;11144;43.030;25.108;2022-12-29T11:23:55;100023.66;;;12.06;100.00
21960;BME280;11144;43.030;25.108;2022-12-29T11:25:29;100032.59;;;12.31;100.00
21960;BME280;11144;43.030;25.108;2022-12-29T11:27:15;100026.28;;;12.35;100.00
21960;BME280;11144;43.030;25.108;2022-12-29T11:29:17;100020.00;;;12.38;100.00
21960;BME280;11144;43.030;25.108;2022-12-29T11:30:58;100027.78;;;12.44;100.00
21960;BME280;11144;43.030;25.108;2022-12-29T11:32:33;100021.34;;;12.51;100.00
21960;BME280;11144;43.030;25.108;2022-12-29T11:34:06;100016.81;;;12.54;100.00
21960;BME280;11144;43.030;25.108;2022-12-29T11:35:42;100021.03;;;12.60;100.00
21960;BME280;11144;43.030;25.108;2022-12-29T11:37:18;100018.44;;;12.58;100.00
21960;BME280;11144;43.030;25.108;2022-12-29T11:38:54;100015.69;;;12.61;100.00
21960;BME280;11144;43.030;25.108;2022-12-29T11:40:29;100027.22;;;12.60;100.00
21960;BME280;11144;43.030;25.108;2022-12-29T11:42:04;100012.25;;;12.58;100.00
21960;BME280;11144;43.030;25.108;2022-12-29T11:43:43;100011.31;;;12.60;100.00
21960;BME280;11144;43.030;25.108;2022-12-29T11:45:22;100012.13;;;12.62;100.00
21960;BME280;11144;43.030;25.108;2022-12-29T11:46:55;100007.63;;;12.64;100.00
21960;BME280;11144;43.030;25.108;2022-12-29T11:48:32;100007.38;;;12.72;100.00
21960;BME280;11144;43.030;25.108;2022-12-29T11:50:07;100017.00;;;12.74;100.00
21960;BME280;11144;43.030;25.108;2022-12-29T11:51:45;100020.50;;;12.76;100.00
21960;BME280;11144;43.030;25.108;2022-12-29T11:53:21;100015.09;;;12.79;100.00
21960;BME280;11144;43.030;25.108;2022-12-29T11:54:56;100011.50;;;12.80;100.00
21960;BME280;11144;43.030;25.108;2022-12-29T11:56:34;100012.34;;;12.82;100.00
21960;BME280;11144;43.030;25.108;2022-12-29T11:58:14;100001.75;;;12.81;100.00
21960;BME280;11144;43.030;25.108;2022-12-29T11:59:51;100000.84;;;12.82;100.00
21960;BME280;11144;43.030;25.108;2022-12-29T12:01:36;100005.06;;;12.87;100.00
21960;BME280;11144;43.030;25.108;2022-12-29T12:03:17;100004.09;;;12.90;100.00
21960;BME280;11144;43.030;25.108;2022-12-29T12:04:56;99992.50;;;12.92;100.00
21960;BME280;11144;43.030;25.108;2022-12-29T12:06:36;99997.72;;;12.95;100.00
21960;BME280;11144;43.030;25.108;2022-12-29T12:08:17;99995.00;;;12.97;100.00
21960;BME280;11144;43.030;25.108;2022-12-29T12:09:57;99995.81;;;13.00;100.00
21960;BME280;11144;43.030;25.108;2022-12-29T12:11:40;99988.66;;;13.02;100.00
21960;BME280;11144;43.030;25.108;2022-12-29T12:13:23;99991.31;;;13.02;100.00
21960;BME280;11144;43.030;25.108;2022-12-29T12:15:01;99985.94;;;13.04;100.00
21960;BME280;11144;43.030;25.108;2022-12-29T12:16:50;99995.47;;;13.09;100.00
21960;BME280;11144;43.030;25.108;2022-12-29T12:18:34;99984.97;;;13.06;100.00
21960;BME280;11144;43.030;25.108;2022-12-29T12:20:16;99981.22;;;13.12;100.00
21960;BME280;11144;43.030;25.108;2022-12-29T12:21:56;99971.44;;;13.14;100.00
21960;BME280;11144;43.030;25.108;2022-12-29T12:23:41;99988.00;;;13.20;100.00
21960;BME280;11144;43.030;25.108;2022-12-29T12:25:19;99979.00;;;13.24;100.00
21960;BME280;11144;43.030;25.108;2022-12-29T12:27:00;99977.16;;;13.26;100.00
21960;BME280;11144;43.030;25.108;2022-12-29T12:28:39;99976.22;;;13.27;100.00
21960;BME280;11144;43.030;25.108;2022-12-29T12:30:18;99973.56;;;13.27;100.00
21960;BME280;11144;43.030;25.108;2022-12-29T12:31:55;99969.88;;;13.31;100.00
21960;BME280;11144;43.030;25.108;2022-12-29T12:33:35;99968.03;;;13.33;100.00
21960;BME280;11144;43.030;25.108;2022-12-29T12:35:12;99969.88;;;13.31;100.00
21960;BME280;11144;43.030;25.108;2022-12-29T12:37:14;99973.13;;;13.39;100.00
21960;BME280;11144;43.030;25.108;2022-12-29T12:38:55;99967.72;;;13.42;100.00
21960;BME280;11144;43.030;25.108;2022-12-29T12:40:45;99974.69;;;13.45;100.00
21960;BME280;11144;43.030;25.108;2022-12-29T12:42:30;99966.59;;;13.48;100.00
21960;BME280;11144;43.030;25.108;2022-12-29T12:44:15;99973.59;;;13.50;100.00
21960;BME280;11144;43.030;25.108;2022-12-29T12:46:03;99974.47;;;13.51;100.00
21960;BME280;11144;43.030;25.108;2022-12-29T12:47:55;99966.31;;;13.55;100.00
21960;BME280;11144;43.030;25.108;2022-12-29T12:49:43;99963.78;;;13.52;100.00
21960;BME280;11144;43.030;25.108;2022-12-29T12:51:33;99967.13;;;13.57;100.00
21960;BME280;11144;43.030;25.108;2022-12-29T12:53:33;99963.44;;;13.61;100.00
21960;BME280;11144;43.030;25.108;2022-12-29T12:55:39;99970.38;;;13.65;100.00
21960;BME280;11144;43.030;25.108;2022-12-29T12:57:18;99967.66;;;13.67;100.00
21960;BME280;11144;43.030;25.108;2022-12-29T12:58:59;99967.69;;;13.65;100.00
21960;BME280;11144;43.030;25.108;2022-12-29T13:00:48;99966.78;;;13.66;100.00
21960;BME280;11144;43.030;25.108;2022-12-29T13:02:36;99967.53;;;13.70;100.00
21960;BME280;11144;43.030;25.108;2022-12-29T13:06:23;99956.91;;;13.70;100.00
21960;BME280;11144;43.030;25.108;2022-12-29T13:08:39;99962.97;;;13.73;100.00
21960;BME280;11144;43.030;25.108;2022-12-29T13:10:25;99971.00;;;13.72;100.00
21960;BME280;11144;43.030;25.108;2022-12-29T13:12:13;99964.72;;;13.75;100.00
21960;BME280;11144;43.030;25.108;2022-12-29T13:14:05;99970.88;;;13.75;100.00
21960;BME280;11144;43.030;25.108;2022-12-29T13:15:47;99977.06;;;13.76;100.00
21960;BME280;11144;43.030;25.108;2022-12-29T13:17:26;99970.94;;;13.73;100.00
21960;BME280;11144;43.030;25.108;2022-12-29T13:19:11;99974.47;;;13.74;100.00
21960;BME280;11144;43.030;25.108;2022-12-29T13:20:51;99977.06;;;13.76;100.00
21960;BME280;11144;43.030;25.108;2022-12-29T13:22:31;99986.72;;;13.78;100.00
21960;BME280;11144;43.030;25.108;2022-12-29T13:24:15;99978.78;;;13.77;100.00
21960;BME280;11144;43.030;25.108;2022-12-29T13:25:53;99980.53;;;13.77;100.00
21960;BME280;11144;43.030;25.108;2022-12-29T13:27:34;99975.19;;;13.77;100.00
21960;BME280;11144;43.030;25.108;2022-12-29T13:29:16;99971.66;;;13.79;100.00
21960;BME280;11144;43.030;25.108;2022-12-29T13:30:57;99973.38;;;13.80;100.00
21960;BME280;11144;43.030;25.108;2022-12-29T13:32:49;99975.09;;;13.81;100.00
21960;BME280;11144;43.030;25.108;2022-12-29T13:34:36;99977.63;;;13.84;100.00
21960;BME280;11144;43.030;25.108;2022-12-29T13:36:20;99978.47;;;13.86;100.00
21960;BME280;11144;43.030;25.108;2022-12-29T13:37:58;99975.81;;;13.86;100.00
21960;BME280;11144;43.030;25.108;2022-12-29T13:39:36;99973.16;;;13.86;100.00
21960;BME280;11144;43.030;25.108;2022-12-29T13:41:15;99980.19;;;13.87;100.00
21960;BME280;11144;43.030;25.108;2022-12-29T13:42:50;99981.13;;;13.86;100.00
21960;BME280;11144;43.030;25.108;2022-12-29T13:44:28;99976.69;;;13.85;100.00
21960;BME280;11144;43.030;25.108;2022-12-29T13:46:10;99973.25;;;13.83;100.00
21960;BME280;11144;43.030;25.108;2022-12-29T13:47:49;99971.53;;;13.82;100.00
21960;BME280;11144;43.030;25.108;2022-12-29T13:49:26;99975.97;;;13.81;100.00
21960;BME280;11144;43.030;25.108;2022-12-29T13:51:02;99973.38;;;13.80;100.00
21960;BME280;11144;43.030;25.108;2022-12-29T13:52:38;99976.97;;;13.79;100.00
21960;BME280;11144;43.030;25.108;2022-12-29T13:54:20;99977.94;;;13.76;100.00
21960;BME280;11144;43.030;25.108;2022-12-29T13:55:58;99966.53;;;13.73;100.00
21960;BME280;11144;43.030;25.108;2022-12-29T13:57:44;99980.88;;;13.68;100.00
21960;BME280;11144;43.030;25.108;2022-12-29T13:59:25;99979.28;;;13.64;100.00
21960;BME280;11144;43.030;25.108;2022-12-29T14:01:07;99975.06;;;13.59;100.00
21960;BME280;11144;43.030;25.108;2022-12-29T14:02:53;99977.88;;;13.54;100.00
21960;BME280;11144;43.030;25.108;2022-12-29T14:04:32;99979.84;;;13.49;100.00
21960;BME280;11144;43.030;25.108;2022-12-29T14:06:17;99980.81;;;13.47;100.00
21960;BME280;11144;43.030;25.108;2022-12-29T14:07:57;99982.72;;;13.43;100.00
21960;BME280;11144;43.030;25.108;2022-12-29T14:09:42;99979.47;;;13.35;100.00
21960;BME280;11144;43.030;25.108;2022-12-29T14:11:21;99986.03;;;13.25;100.00
21960;BME280;11144;43.030;25.108;2022-12-29T14:13:02;99989.72;;;13.21;100.00
21960;BME280;11144;43.030;25.108;2022-12-29T14:14:37;99976.69;;;13.15;100.00
21960;BME280;11144;43.030;25.108;2022-12-29T14:16:29;99986.47;;;13.13;100.00
21960;BME280;11144;43.030;25.108;2022-12-29T14:18:12;99977.91;;;13.05;100.00
21960;BME280;11144;43.030;25.108;2022-12-29T14:19:51;99985.59;;;13.13;100.00
21960;BME280;11144;43.030;25.108;2022-12-29T14:21:27;99986.47;;;13.13;100.00
21960;BME280;11144;43.030;25.108;2022-12-29T14:23:17;99985.94;;;13.04;100.00
21960;BME280;11144;43.030;25.108;2022-12-29T14:24:50;99986.81;;;13.04;100.00
21960;BME280;11144;43.030;25.108;2022-12-29T14:26:36;99983.34;;;13.02;100.00
21960;BME280;11144;43.030;25.108;2022-12-29T14:28:16;99979.88;;;13.00;100.00
21960;BME280;11144;43.030;25.108;2022-12-29T14:29:55;99990.56;;;12.97;100.00
21960;BME280;11144;43.030;25.108;2022-12-29T14:31:35;99984.53;;;12.92;100.00
21960;BME280;11144;43.030;25.108;2022-12-29T14:33:14;99982.09;;;12.86;100.00
21960;BME280;11144;43.030;25.108;2022-12-29T14:34:48;99983.94;;;12.84;100.00
21960;BME280;11144;43.030;25.108;2022-12-29T14:36:26;99981.50;;;12.78;100.00
21960;BME280;11144;43.030;25.108;2022-12-29T14:38:24;99987.00;;;12.72;100.00
21960;BME280;11144;43.030;25.108;2022-12-29T14:40:04;99989.06;;;12.64;100.00
21960;BME280;11144;43.030;25.108;2022-12-29T14:41:39;99979.63;;;12.56;100.00
21960;BME280;11144;43.030;25.108;2022-12-29T14:43:14;99982.72;;;12.42;100.00
21960;BME280;11144;43.030;25.108;2022-12-29T14:44:53;99984.81;;;12.33;100.00
21960;BME280;11144;43.030;25.108;2022-12-29T14:46:43;99989.56;;;12.23;100.00
21960;BME280;11144;43.030;25.108;2022-12-29T14:48:37;99989.81;;;12.14;100.00
21960;BME280;11144;43.030;25.108;2022-12-29T14:50:15;99989.16;;;12.08;100.00
21960;BME280;11144;43.030;25.108;2022-12-29T14:51:51;99987.66;;;11.99;100.00
21960;BME280;11144;43.030;25.108;2022-12-29T14:53:45;99990.47;;;11.93;100.00
21960;BME280;11144;43.030;25.108;2022-12-29T14:55:32;99985.28;;;11.90;100.00
21960;BME280;11144;43.030;25.108;2022-12-29T14:57:31;99993.50;;;11.81;100.00
21960;BME280;11144;43.030;25.108;2022-12-29T14:59:10;99996.34;;;11.75;100.00
21960;BME280;11144;43.030;25.108;2022-12-29T15:00:44;99996.59;;;11.66;100.00
21960;BME280;11144;43.030;25.108;2022-12-29T15:02:23;99997.72;;;11.58;100.00
21960;BME280;11144;43.030;25.108;2022-12-29T15:04:03;99997.03;;;11.51;100.00
21960;BME280;11144;43.030;25.108;2022-12-29T15:05:42;100001.63;;;11.45;100.00
21960;BME280;11144;43.030;25.108;2022-12-29T15:07:18;100008.06;;;11.36;100.00
21960;BME280;11144;43.030;25.108;2022-12-29T15:08:58;99998.53;;;11.29;100.00
21960;BME280;11144;43.030;25.108;2022-12-29T15:10:41;100004.84;;;11.25;100.00
21960;BME280;11144;43.030;25.108;2022-12-29T15:12:21;99999.69;;;11.19;100.00
21960;BME280;11144;43.030;25.108;2022-12-29T15:13:55;100006.97;;;11.11;100.00
21960;BME280;11144;43.030;25.108;2022-12-29T15:15:29;100003.59;;;11.06;100.00
21960;BME280;11144;43.030;25.108;2022-12-29T15:17:11;100009.88;;;11.02;100.00
21960;BME280;11144;43.030;25.108;2022-12-29T15:18:55;100008.28;;;10.97;100.00
21960;BME280;11144;43.030;25.108;2022-12-29T15:20:30;100007.66;;;10.87;100.00
21960;BME280;11144;43.030;25.108;2022-12-29T15:22:03;100007.78;;;10.81;100.00
21960;BME280;11144;43.030;25.108;2022-12-29T15:23:37;100004.47;;;10.73;100.00
21960;BME280;11144;43.030;25.108;2022-12-29T15:25:15;100006.28;;;10.71;100.00
21960;BME280;11144;43.030;25.108;2022-12-29T15:26:50;100015.28;;;10.64;100.00
21960;BME280;11144;43.030;25.108;2022-12-29T15:28:25;100011.00;;;10.59;100.00
21960;BME280;11144;43.030;25.108;2022-12-29T15:30:00;100011.97;;;10.56;100.00
21960;BME280;11144;43.030;25.108;2022-12-29T15:31:45;100016.53;;;10.50;100.00
21960;BME280;11144;43.030;25.108;2022-12-29T15:33:22;100015.69;;;10.48;100.00
21960;BME280;11144;43.030;25.108;2022-12-29T15:34:57;100015.81;;;10.43;100.00
21960;BME280;11144;43.030;25.108;2022-12-29T15:36:37;100024.94;;;10.30;100.00
21960;BME280;11144;43.030;25.108;2022-12-29T15:38:15;100021.59;;;10.22;100.00
21960;BME280;11144;43.030;25.108;2022-12-29T15:39:49;100020.94;;;10.14;100.00
21960;BME280;11144;43.030;25.108;2022-12-29T15:41:30;100027.19;;;10.10;100.00
21960;BME280;11144;43.030;25.108;2022-12-29T15:43:42;100018.53;;;10.02;100.00
21960;BME280;11144;43.030;25.108;2022-12-29T15:45:20;100027.44;;;9.98;100.00
21960;BME280;11144;43.030;25.108;2022-12-29T15:46:53;100022.28;;;9.92;100.00
21960;BME280;11144;43.030;25.108;2022-12-29T15:48:27;100028.53;;;9.88;100.00
21960;BME280;11144;43.030;25.108;2022-12-29T15:50:04;100025.06;;;9.84;100.00
21960;BME280;11144;43.030;25.108;2022-12-29T15:51:39;100029.56;;;9.81;100.00
21960;BME280;11144;43.030;25.108;2022-12-29T15:53:20;100034.91;;;9.78;100.00
21960;BME280;11144;43.030;25.108;2022-12-29T15:54:58;100027.88;;;9.77;100.00
21960;BME280;11144;43.030;25.108;2022-12-29T15:56:33;100033.22;;;9.74;100.00
21960;BME280;11144;43.030;25.108;2022-12-29T15:58:19;100026.22;;;9.73;100.00
21960;BME280;11144;43.030;25.108;2022-12-29T15:59:53;100028.75;;;9.77;100.00
21960;BME280;11144;43.030;25.108;2022-12-29T16:01:28;100019.13;;;9.75;100.00
21960;BME280;11144;43.030;25.108;2022-12-29T16:03:05;100025.28;;;9.75;100.00
21960;BME280;11144;43.030;25.108;2022-12-29T16:04:40;100022.63;;;9.75;100.00
21960;BME280;11144;43.030;25.108;2022-12-29T16:06:36;100026.16;;;9.76;100.00
21960;BME280;11144;43.030;25.108;2022-12-29T16:08:24;100024.44;;;9.73;100.00
21960;BME280;11144;43.030;25.108;2022-12-29T16:10:01;100027.03;;;9.75;100.00
21960;BME280;11144;43.030;25.108;2022-12-29T16:11:37;100015.66;;;9.73;100.00
21960;BME280;11144;43.030;25.108;2022-12-29T16:13:32;100025.44;;;9.68;100.00
21960;BME280;11144;43.030;25.108;2022-12-29T16:15:13;100026.34;;;9.67;100.00
21960;BME280;11144;43.030;25.108;2022-12-29T16:16:48;100024.63;;;9.64;100.00
21960;BME280;11144;43.030;25.108;2022-12-29T16:18:24;100027.31;;;9.63;100.00
21960;BME280;11144;43.030;25.108;2022-12-29T16:20:13;100028.28;;;9.57;100.00
21960;BME280;11144;43.030;25.108;2022-12-29T16:21:49;100028.28;;;9.59;100.00
21960;BME280;11144;43.030;25.108;2022-12-29T16:23:25;100027.44;;;9.55;100.00
21960;BME280;11144;43.030;25.108;2022-12-29T16:25:02;100031.88;;;9.55;100.00
21960;BME280;11144;43.030;25.108;2022-12-29T16:26:37;100035.34;;;9.57;100.00
21960;BME280;11144;43.030;25.108;2022-12-29T16:28:17;100032.72;;;9.55;100.00
21960;BME280;11144;43.030;25.108;2022-12-29T16:29:53;100037.16;;;9.55;100.00
21960;BME280;11144;43.030;25.108;2022-12-29T16:31:34;100037.19;;;9.53;100.00
21960;BME280;11144;43.030;25.108;2022-12-29T16:35:21;100037.28;;;9.47;100.00
21960;BME280;11144;43.030;25.108;2022-12-29T16:36:56;100039.13;;;9.44;100.00
21960;BME280;11144;43.030;25.108;2022-12-29T16:38:32;100040.06;;;9.43;100.00
21960;BME280;11144;43.030;25.108;2022-12-29T16:40:29;100041.13;;;9.33;100.00
21960;BME280;11144;43.030;25.108;2022-12-29T16:42:34;100034.31;;;9.20;100.00
21960;BME280;11144;43.030;25.108;2022-12-29T16:44:15;100040.66;;;9.11;100.00
21960;BME280;11144;43.030;25.108;2022-12-29T16:46:25;100042.53;;;9.03;100.00
21960;BME280;11144;43.030;25.108;2022-12-29T16:48:16;100046.25;;;8.95;100.00
21960;BME280;11144;43.030;25.108;2022-12-29T16:50:12;100038.53;;;8.83;100.00
21960;BME280;11144;43.030;25.108;2022-12-29T16:51:46;100042.22;;;8.73;100.00
21960;BME280;11144;43.030;25.108;2022-12-29T16:53:24;100043.22;;;8.66;100.00
21960;BME280;11144;43.030;25.108;2022-12-29T16:54:59;100040.69;;;8.60;100.00
21960;BME280;11144;43.030;25.108;2022-12-29T16:56:34;100046.03;;;8.54;100.00
21960;BME280;11144;43.030;25.108;2022-12-29T16:58:16;100052.34;;;8.45;100.00
21960;BME280;11144;43.030;25.108;2022-12-29T16:59:53;100058.59;;;8.40;100.00
21960;BME280;11144;43.030;25.108;2022-12-29T17:01:28;100056.91;;;8.36;100.00
21960;BME280;11144;43.030;25.108;2022-12-29T17:03:03;100046.47;;;8.27;100.00
21960;BME280;11144;43.030;25.108;2022-12-29T17:04:36;100050.06;;;8.23;100.00
21960;BME280;11144;43.030;25.108;2022-12-29T17:06:14;100060.59;;;8.20;100.00
21960;BME280;11144;43.030;25.108;2022-12-29T17:07:48;100062.44;;;8.15;100.00
21960;BME280;11144;43.030;25.108;2022-12-29T17:09:24;100051.97;;;8.09;100.00
21960;BME280;11144;43.030;25.108;2022-12-29T17:10:58;100058.22;;;8.02;100.00
21960;BME280;11144;43.030;25.108;2022-12-29T17:12:49;100055.69;;;7.96;100.00
21960;BME280;11144;43.030;25.108;2022-12-29T17:14:42;100061.88;;;7.93;100.00
21960;BME280;11144;43.030;25.108;2022-12-29T17:16:16;100062.81;;;7.88;100.00
21960;BME280;11144;43.030;25.108;2022-12-29T17:17:51;100063.72;;;7.85;100.00
21960;BME280;11144;43.030;25.108;2022-12-29T17:19:29;100061.97;;;7.86;100.00
21960;BME280;11144;43.030;25.108;2022-12-29T17:21:08;100062.91;;;7.82;100.00
21960;BME280;11144;43.030;25.108;2022-12-29T17:22:41;100053.31;;;7.78;100.00
21960;BME280;11144;43.030;25.108;2022-12-29T17:24:19;100061.25;;;7.72;100.00
21960;BME280;11144;43.030;25.108;2022-12-29T17:25:52;100058.69;;;7.67;100.00
21960;BME280;11144;43.030;25.108;2022-12-29T17:27:29;100054.44;;;7.59;100.00
21960;BME280;11144;43.030;25.108;2022-12-29T17:29:03;100057.09;;;7.56;100.00
21960;BME280;11144;43.030;25.108;2022-12-29T17:30:39;100059.81;;;7.47;100.00
21960;BME280;11144;43.030;25.108;2022-12-29T17:32:13;100055.56;;;7.35;100.00
21960;BME280;11144;43.030;25.108;2022-12-29T17:33:47;100061.78;;;7.30;100.00
21960;BME280;11144;43.030;25.108;2022-12-29T17:35:21;100059.22;;;7.21;100.00
21960;BME280;11144;43.030;25.108;2022-12-29T17:36:54;100054.91;;;7.15;100.00
21960;BME280;11144;43.030;25.108;2022-12-29T17:38:31;100063.69;;;7.16;100.00
21960;BME280;11144;43.030;25.108;2022-12-29T17:40:11;100063.69;;;7.13;100.00
21960;BME280;11144;43.030;25.108;2022-12-29T17:41:46;100060.22;;;7.11;100.00
21960;BME280;11144;43.030;25.108;2022-12-29T17:43:20;100062.88;;;7.11;100.00
21960;BME280;11144;43.030;25.108;2022-12-29T17:44:54;100055.03;;;7.04;100.00
21960;BME280;11144;43.030;25.108;2022-12-29T17:46:29;100058.56;;;7.03;100.00
21960;BME280;11144;43.030;25.108;2022-12-29T17:48:07;100061.22;;;6.96;100.00
21960;BME280;11144;43.030;25.108;2022-12-29T17:49:44;100056.00;;;6.93;100.00
21960;BME280;11144;43.030;25.108;2022-12-29T17:51:19;100061.28;;;6.91;100.00
21960;BME280;11144;43.030;25.108;2022-12-29T17:52:57;100058.72;;;6.85;100.00
21960;BME280;11144;43.030;25.108;2022-12-29T17:54:33;100056.16;;;6.78;100.00
21960;BME280;11144;43.030;25.108;2022-12-29T17:56:06;100059.69;;;6.72;100.00
21960;BME280;11144;43.030;25.108;2022-12-29T17:57:41;100055.34;;;6.68;100.00
21960;BME280;11144;43.030;25.108;2022-12-29T17:59:18;100066.78;;;6.63;100.00
21960;BME280;11144;43.030;25.108;2022-12-29T18:00:52;100065.97;;;6.56;100.00
21960;BME280;11144;43.030;25.108;2022-12-29T18:02:29;100062.50;;;6.53;100.00
21960;BME280;11144;43.030;25.108;2022-12-29T18:04:03;100056.41;;;6.48;100.00
21960;BME280;11144;43.030;25.108;2022-12-29T18:05:37;100053.78;;;6.45;100.00
21960;BME280;11144;43.030;25.108;2022-12-29T18:07:10;100067.81;;;6.45;100.00
21960;BME280;11144;43.030;25.108;2022-12-29T18:08:44;100065.22;;;6.41;100.00
21960;BME280;11144;43.030;25.108;2022-12-29T18:10:17;100060.84;;;6.41;100.00
21960;BME280;11144;43.030;25.108;2022-12-29T18:11:51;100062.59;;;6.39;100.00
21960;BME280;11144;43.030;25.108;2022-12-29T18:13:27;100060.03;;;6.35;100.00
21960;BME280;11144;43.030;25.108;2022-12-29T18:15:18;100067.91;;;6.33;100.00
21960;BME280;11144;43.030;25.108;2022-12-29T18:16:52;100060.94;;;6.29;100.00
21960;BME280;11144;43.030;25.108;2022-12-29T18:18:28;100067.94;;;6.24;100.00
21960;BME280;11144;43.030;25.108;2022-12-29T18:20:02;100059.25;;;6.16;100.00
21960;BME280;11144;43.030;25.108;2022-12-29T18:21:37;100056.69;;;6.09;100.00
21960;BME280;11144;43.030;25.108;2022-12-29T18:23:17;100057.59;;;6.03;100.00
21960;BME280;11144;43.030;25.108;2022-12-29T18:24:52;100056.75;;;6.00;100.00
21960;BME280;11144;43.030;25.108;2022-12-29T18:26:27;100049.75;;;5.97;100.00
21960;BME280;11144;43.030;25.108;2022-12-29T18:28:02;100057.63;;;5.97;100.00
21960;BME280;11144;43.030;25.108;2022-12-29T18:29:36;100059.44;;;5.89;100.00
21960;BME280;11144;43.030;25.108;2022-12-29T18:31:16;100050.75;;;5.81;100.00
21960;BME280;11144;43.030;25.108;2022-12-29T18:32:52;100055.97;;;5.75;100.00
21960;BME280;11144;43.030;25.108;2022-12-29T18:34:28;100059.50;;;5.71;100.00
21960;BME280;11144;43.030;25.108;2022-12-29T18:36:03;100062.97;;;5.73;100.00
21960;BME280;11144;43.030;25.108;2022-12-29T18:37:37;100065.63;;;5.72;100.00
21960;BME280;11144;43.030;25.108;2022-12-29T18:39:11;100057.78;;;5.64;100.00
21960;BME280;11144;43.030;25.108;2022-12-29T18:40:46;100054.25;;;5.64;100.00
21960;BME280;11144;43.030;25.108;2022-12-29T18:42:20;100047.28;;;5.58;100.00
21960;BME280;11144;43.030;25.108;2022-12-29T18:43:53;100056.06;;;5.56;100.00
21960;BME280;11144;43.030;25.108;2022-12-29T18:45:31;100049.97;;;5.54;100.00
21960;BME280;11144;43.030;25.108;2022-12-29T18:47:05;100050.84;;;5.48;100.00
21960;BME280;11144;43.030;25.108;2022-12-29T18:48:39;100052.59;;;5.46;100.00
21960;BME280;11144;43.030;25.108;2022-12-29T18:50:14;100056.09;;;5.48;100.00
21960;BME280;11144;43.030;25.108;2022-12-29T18:51:48;100045.63;;;5.45;100.00
21960;BME280;11144;43.030;25.108;2022-12-29T18:53:23;100029.94;;;5.27;100.00
21960;BME280;11144;43.030;25.108;2022-12-29T18:54:56;100045.63;;;5.36;100.00
21960;BME280;11144;43.030;25.108;2022-12-29T18:56:29;100048.25;;;5.39;100.00
21960;BME280;11144;43.030;25.108;2022-12-29T18:58:03;100059.63;;;5.41;100.00
21960;BME280;11144;43.030;25.108;2022-12-29T18:59:37;100052.59;;;5.43;100.00
21960;BME280;11144;43.030;25.108;2022-12-29T19:01:17;100053.47;;;5.45;100.00
21960;BME280;11144;43.030;25.108;2022-12-29T19:02:53;100039.50;;;5.42;100.00
21960;BME280;11144;43.030;25.108;2022-12-29T19:04:28;100061.34;;;5.45;100.00
21960;BME280;11144;43.030;25.108;2022-12-29T19:06:03;100052.66;;;5.37;100.00
21960;BME280;11144;43.030;25.108;2022-12-29T19:07:37;100049.13;;;5.34;100.00
21960;BME280;11144;43.030;25.108;2022-12-29T19:09:10;100047.41;;;5.28;100.00
21960;BME280;11144;43.030;25.108;2022-12-29T19:10:45;100044.84;;;5.16;100.00
21960;BME280;11144;43.030;25.108;2022-12-29T19:12:19;100049.22;;;5.08;100.00
21960;BME280;11144;43.030;25.108;2022-12-29T19:13:58;100058.81;;;5.06;100.00
21960;BME280;11144;43.030;25.108;2022-12-29T19:15:34;100057.97;;;5.04;100.00
21960;BME280;11144;43.030;25.108;2022-12-29T19:17:10;100054.47;;;5.02;100.00
21960;BME280;11144;43.030;25.108;2022-12-29T19:18:44;100048.38;;;4.97;100.00
21960;BME280;11144;43.030;25.108;2022-12-29T19:20:40;100040.53;;;4.82;100.00
21960;BME280;11144;43.030;25.108;2022-12-29T19:22:15;100059.72;;;4.84;100.00
21960;BME280;11144;43.030;25.108;2022-12-29T19:23:49;100055.38;;;4.77;100.00
21960;BME280;11144;43.030;25.108;2022-12-29T19:25:23;100058.03;;;4.71;100.00
21960;BME280;11144;43.030;25.108;2022-12-29T19:26:56;100061.53;;;4.69;100.00
21960;BME280;11144;43.030;25.108;2022-12-29T19:28:30;100052.78;;;4.68;100.00
21960;BME280;11144;43.030;25.108;2022-12-29T19:30:04;100059.78;;;4.63;100.00
21960;BME280;11144;43.030;25.108;2022-12-29T19:31:38;100052.78;;;4.62;100.00
21960;BME280;11144;43.030;25.108;2022-12-29T19:33:12;100066.75;;;4.61;100.00